createdAt,value
2018-11-06T00:00:03.235Z,8.80
2018-11-06T00:02:31.591Z,9.00
2018-11-06T00:05:05.388Z,9.20
2018-11-06T00:07:33.572Z,9.00
2018-11-06T00:10:01.828Z,9.20
2018-11-06T00:12:30.209Z,8.60
2018-11-06T00:15:00.110Z,9.10
2018-11-06T00:17:28.304Z,9.10
2018-11-06T00:19:56.731Z,8.80
2018-11-06T00:22:24.976Z,9.40
2018-11-06T00:24:53.364Z,9.30
2018-11-06T00:27:21.720Z,9.40
2018-11-06T00:29:50.165Z,9.60
2018-11-06T00:32:18.373Z,9.50
2018-11-06T00:34:46.757Z,9.70
2018-11-06T00:37:14.962Z,9.30
2018-11-06T00:39:43.281Z,8.90
2018-11-06T00:42:11.573Z,9.50
2018-11-06T00:44:39.765Z,9.50
2018-11-06T00:47:08.094Z,9.40
2018-11-06T00:49:36.271Z,9.80
2018-11-06T00:52:04.827Z,9.40
2018-11-06T00:54:33.152Z,9.80
2018-11-06T00:57:01.362Z,9.60
2018-11-06T00:59:29.669Z,9.20
2018-11-06T01:01:58.295Z,9.90
2018-11-06T01:04:26.484Z,9.90
2018-11-06T01:06:54.679Z,9.70
2018-11-06T01:09:23.090Z,10.00
2018-11-06T01:11:51.355Z,9.80
2018-11-06T01:14:19.635Z,9.80
2018-11-06T01:16:47.919Z,10.00
2018-11-06T01:19:16.130Z,9.90
2018-11-06T01:21:44.357Z,10.00
2018-11-06T01:24:12.742Z,9.90
2018-11-06T01:26:40.947Z,9.90
2018-11-06T01:29:09.155Z,10.00
2018-11-06T01:31:37.499Z,10.40
2018-11-06T01:34:05.814Z,10.10
2018-11-06T01:36:34.053Z,10.10
2018-11-06T01:39:02.585Z,10.50
2018-11-06T01:41:30.783Z,9.50
2018-11-06T01:43:58.983Z,9.60
2018-11-06T01:46:27.287Z,10.00
2018-11-06T01:48:55.462Z,10.30
2018-11-06T01:51:23.654Z,10.60
2018-11-06T01:53:51.946Z,10.40
2018-11-06T01:56:21.610Z,10.90
2018-11-06T01:58:49.773Z,11.00
2018-11-06T02:01:18.071Z,10.90
2018-11-06T02:03:46.293Z,10.80
2018-11-06T02:06:14.518Z,11.00
2018-11-06T02:08:43.115Z,11.10
2018-11-06T02:11:11.292Z,11.00
2018-11-06T02:13:39.584Z,11.10
2018-11-06T02:16:08.253Z,10.80
2018-11-06T02:18:36.435Z,10.60
2018-11-06T02:21:05.100Z,10.70
2018-11-06T02:23:33.387Z,10.80
2018-11-06T02:26:01.659Z,11.20
2018-11-06T02:28:29.884Z,10.90
2018-11-06T02:30:58.201Z,11.60
2018-11-06T02:33:26.520Z,11.20
2018-11-06T02:35:54.699Z,11.30
2018-11-06T02:38:22.887Z,11.50
2018-11-06T02:40:51.338Z,11.20
2018-11-06T02:43:19.507Z,11.20
2018-11-06T02:45:47.702Z,11.10
2018-11-06T02:48:15.984Z,11.70
2018-11-06T02:50:44.268Z,11.60
2018-11-06T02:53:12.472Z,10.90
2018-11-06T02:55:40.695Z,11.30
2018-11-06T02:58:08.990Z,11.70
2018-11-06T03:00:37.242Z,11.10
2018-11-06T03:03:05.608Z,11.60
2018-11-06T03:05:33.904Z,11.50
2018-11-06T03:08:02.216Z,11.50
2018-11-06T03:10:30.598Z,11.70
2018-11-06T03:12:58.824Z,11.40
2018-11-06T03:15:27.081Z,11.40
2018-11-06T03:17:55.410Z,11.10
2018-11-06T03:20:23.640Z,11.50
2018-11-06T03:22:51.815Z,11.10
2018-11-06T03:25:20.095Z,11.30
2018-11-06T03:27:48.301Z,10.80
2018-11-06T03:30:16.497Z,10.40
2018-11-06T03:32:45.063Z,11.30
2018-11-06T03:35:14.046Z,10.80
2018-11-06T03:37:42.348Z,11.10
2018-11-06T03:40:11.432Z,10.30
2018-11-06T03:42:40.447Z,11.20
2018-11-06T03:45:09.299Z,10.90
2018-11-06T03:47:37.588Z,11.00
2018-11-06T03:50:07.394Z,11.00
2018-11-06T03:52:35.695Z,11.50
2018-11-06T03:55:04.053Z,11.10
2018-11-06T03:57:32.236Z,10.40
2018-11-06T04:00:00.570Z,11.10
2018-11-06T04:02:28.779Z,11.40
2018-11-06T04:04:56.997Z,11.30
2018-11-06T04:07:25.519Z,11.50
2018-11-06T04:09:53.767Z,11.30
2018-11-06T04:12:21.939Z,11.50
2018-11-06T04:14:50.199Z,11.40
2018-11-06T04:17:18.505Z,11.40
2018-11-06T04:19:46.705Z,11.30
2018-11-06T04:22:14.888Z,10.90
2018-11-06T04:24:43.233Z,11.70
2018-11-06T04:27:11.527Z,11.60
2018-11-06T04:29:39.722Z,11.70
2018-11-06T04:32:08.023Z,11.60
2018-11-06T04:34:36.332Z,11.60
2018-11-06T04:37:04.523Z,11.60
2018-11-06T04:39:32.715Z,11.40
2018-11-06T04:42:01.010Z,11.60
2018-11-06T04:44:29.195Z,11.90
2018-11-06T04:46:57.399Z,11.90
2018-11-06T04:49:25.719Z,11.50
2018-11-06T04:51:53.904Z,11.60
2018-11-06T04:54:22.106Z,11.50
2018-11-06T04:56:50.386Z,11.90
2018-11-06T04:59:18.559Z,11.60
2018-11-06T05:01:46.730Z,11.60
2018-11-06T05:04:15.010Z,11.80
2018-11-06T05:06:43.199Z,11.20
2018-11-06T05:09:11.390Z,11.60
2018-11-06T05:11:39.706Z,11.50
2018-11-06T05:14:07.947Z,11.40
2018-11-06T05:16:36.228Z,11.70
2018-11-06T05:19:04.574Z,11.60
2018-11-06T05:21:32.949Z,11.40
2018-11-06T05:24:01.142Z,11.50
2018-11-06T05:26:29.320Z,11.40
2018-11-06T05:28:57.609Z,11.10
2018-11-06T05:31:26.484Z,10.80
2018-11-06T05:33:54.682Z,11.30
2018-11-06T05:36:22.956Z,11.00
2018-11-06T05:38:51.205Z,11.30
2018-11-06T05:41:19.316Z,10.90
2018-11-06T05:43:47.687Z,10.80
2018-11-06T05:46:15.832Z,11.00
2018-11-06T05:48:44.010Z,10.70
2018-11-06T05:51:12.292Z,10.80
2018-11-06T05:53:40.487Z,10.40
2018-11-06T05:56:08.679Z,10.60
2018-11-06T05:58:37.000Z,10.90
2018-11-06T06:01:05.596Z,10.70
2018-11-06T06:03:33.818Z,10.60
2018-11-06T06:06:02.172Z,10.60
2018-11-06T06:08:30.438Z,10.70
2018-11-06T06:10:58.763Z,10.60
2018-11-06T06:13:27.067Z,10.00
2018-11-06T06:15:55.382Z,9.60
2018-11-06T06:18:23.657Z,9.60
2018-11-06T06:20:51.858Z,9.70
2018-11-06T06:23:20.686Z,10.20
2018-11-06T06:25:48.940Z,9.80
2018-11-06T06:28:17.196Z,10.40
2018-11-06T06:30:45.511Z,10.40
2018-11-06T06:33:13.837Z,10.00
2018-11-06T06:35:42.032Z,10.00
2018-11-06T06:38:10.253Z,10.20
2018-11-06T06:40:38.744Z,10.00
2018-11-06T06:43:06.966Z,9.50
2018-11-06T06:45:35.229Z,10.20
2018-11-06T06:48:03.642Z,10.60
2018-11-06T06:50:31.915Z,10.70
2018-11-06T06:53:00.215Z,9.90
2018-11-06T06:55:28.606Z,9.90
2018-11-06T06:57:56.908Z,10.50
2018-11-06T07:00:25.156Z,10.80
2018-11-06T07:02:53.479Z,10.70
2018-11-06T07:05:22.874Z,10.70
2018-11-06T07:07:51.159Z,10.10
2018-11-06T07:10:20.885Z,10.60
2018-11-06T07:12:50.109Z,11.00
2018-11-06T07:15:19.587Z,10.40
2018-11-06T07:17:48.546Z,10.50
2018-11-06T07:20:18.292Z,10.90
2018-11-06T07:22:46.578Z,11.20
2018-11-06T07:25:15.262Z,11.00
2018-11-06T07:27:44.755Z,11.10
2018-11-06T07:30:15.448Z,11.30
2018-11-06T07:32:44.301Z,11.10
2018-11-06T07:35:13.635Z,11.00
2018-11-06T07:37:42.310Z,11.20
2018-11-06T07:40:12.109Z,10.90
2018-11-06T07:42:40.790Z,10.70
2018-11-06T07:45:12.773Z,10.80
2018-11-06T07:47:41.273Z,11.10
2018-11-06T07:50:10.479Z,11.10
2018-11-06T07:52:39.012Z,11.40
2018-11-06T07:55:10.277Z,11.20
2018-11-06T07:57:38.574Z,10.70
2018-11-06T08:00:12.386Z,11.60
2018-11-06T08:02:40.783Z,10.80
2018-11-06T08:05:09.152Z,11.70
2018-11-06T08:07:37.432Z,11.60
2018-11-06T08:10:06.808Z,11.40
2018-11-06T08:12:35.094Z,11.00
2018-11-06T08:15:03.618Z,11.60
2018-11-06T08:17:31.903Z,11.90
2018-11-06T08:20:00.259Z,12.00
2018-11-06T08:22:28.548Z,11.80
2018-11-06T08:24:56.790Z,11.70
2018-11-06T08:27:25.664Z,12.60
2018-11-06T08:29:53.919Z,12.90
2018-11-06T08:32:22.655Z,12.70
2018-11-06T08:34:50.626Z,12.90
2018-11-06T08:37:18.901Z,12.90
2018-11-06T08:39:47.328Z,12.60
2018-11-06T08:42:16.281Z,13.10
2018-11-06T08:44:44.565Z,12.90
2018-11-06T08:47:12.930Z,12.90
2018-11-06T08:49:41.311Z,12.50
2018-11-06T08:52:09.641Z,12.60
2018-11-06T08:54:37.968Z,12.60
2018-11-06T08:57:06.457Z,13.00
2018-11-06T08:59:34.797Z,12.90
2018-11-06T09:02:03.141Z,13.00
2018-11-06T09:04:31.530Z,12.80
2018-11-06T09:06:59.945Z,12.90
2018-11-06T09:09:28.257Z,13.00
2018-11-06T09:11:56.593Z,13.20
2018-11-06T09:14:25.165Z,13.00
2018-11-06T09:16:53.565Z,13.20
2018-11-06T09:19:21.963Z,13.30
2018-11-06T09:21:50.274Z,14.00
2018-11-06T09:24:18.582Z,14.00
2018-11-06T09:26:47.011Z,13.60
2018-11-06T09:29:15.312Z,14.20
2018-11-06T09:31:43.741Z,14.60
2018-11-06T09:34:12.164Z,14.60
2018-11-06T09:36:40.430Z,15.00
2018-11-06T09:39:10.607Z,14.30
2018-11-06T09:41:39.421Z,15.00
2018-11-06T09:44:07.745Z,14.80
2018-11-06T09:46:38.019Z,15.20
2018-11-06T09:49:06.906Z,15.10
2018-11-06T09:51:35.559Z,15.80
2018-11-06T09:54:04.411Z,16.20
2018-11-06T09:56:32.781Z,15.90
2018-11-06T09:59:01.165Z,16.40
2018-11-06T10:01:29.893Z,16.60
2018-11-06T10:03:58.188Z,16.40
2018-11-06T10:06:26.620Z,17.20
2018-11-06T10:08:54.938Z,17.50
2018-11-06T10:11:23.351Z,17.40
2018-11-06T10:13:51.779Z,17.50
2018-11-06T10:16:20.059Z,17.80
2018-11-06T10:18:49.441Z,18.30
2018-11-06T10:21:18.972Z,18.60
2018-11-06T10:23:47.337Z,18.00
2018-11-06T10:26:15.604Z,18.60
2018-11-06T10:28:43.940Z,18.30
2018-11-06T10:31:12.408Z,17.80
2018-11-06T10:33:40.860Z,18.50
2018-11-06T10:36:09.169Z,18.50
2018-11-06T10:38:37.617Z,18.40
2018-11-06T10:41:06.368Z,18.60
2018-11-06T10:43:34.703Z,18.80
2018-11-06T10:46:03.022Z,18.70
2018-11-06T10:48:32.294Z,18.70
2018-11-06T10:51:00.646Z,18.70
2018-11-06T10:53:29.029Z,19.20
2018-11-06T10:55:57.848Z,18.80
2018-11-06T10:58:26.093Z,18.80
2018-11-06T11:01:00.460Z,19.20
2018-11-06T11:03:38.049Z,19.20
2018-11-06T11:06:06.673Z,18.90
2018-11-06T11:08:34.985Z,19.30
2018-11-06T11:11:03.373Z,19.90
2018-11-06T11:13:31.740Z,19.70
2018-11-06T11:16:00.050Z,20.00
2018-11-06T11:18:28.486Z,20.20
2018-11-06T11:20:56.890Z,20.60
2018-11-06T11:23:25.339Z,20.00
2018-11-06T11:25:53.670Z,20.40
2018-11-06T11:28:22.092Z,20.70
2018-11-06T11:30:50.446Z,21.00
2018-11-06T11:33:18.852Z,20.50
2018-11-06T11:35:47.136Z,21.00
2018-11-06T11:38:15.486Z,20.80
2018-11-06T11:40:43.978Z,20.90
2018-11-06T11:43:12.363Z,21.50
2018-11-06T11:45:40.741Z,21.30
2018-11-06T11:48:09.016Z,21.50
2018-11-06T11:50:37.280Z,21.10
2018-11-06T11:53:05.665Z,21.40
2018-11-06T11:55:33.904Z,22.10
2018-11-06T11:58:02.204Z,22.20
2018-11-06T12:00:30.722Z,22.10
2018-11-06T12:02:58.930Z,22.50
2018-11-06T12:05:27.254Z,22.20
2018-11-06T12:07:55.629Z,22.10
2018-11-06T12:10:23.877Z,22.80
2018-11-06T12:12:52.173Z,23.10
2018-11-06T12:15:20.590Z,22.40
2018-11-06T12:17:48.873Z,23.10
2018-11-06T12:20:17.243Z,23.00
2018-11-06T12:22:45.625Z,23.00
2018-11-06T12:25:14.359Z,22.90
2018-11-06T12:27:42.540Z,22.90
2018-11-06T12:30:13.869Z,23.20
2018-11-06T12:32:42.245Z,23.10
2018-11-06T12:35:11.493Z,23.40
2018-11-06T12:37:40.211Z,23.20
2018-11-06T12:40:10.123Z,23.60
2018-11-06T12:42:38.892Z,23.50
2018-11-06T12:45:09.787Z,23.10
2018-11-06T12:47:38.383Z,23.10
2018-11-06T12:50:07.839Z,22.80
2018-11-06T12:52:36.204Z,23.20
2018-11-06T12:55:06.142Z,23.00
2018-11-06T12:57:34.444Z,23.10
2018-11-06T13:00:02.783Z,23.30
2018-11-06T13:02:31.202Z,22.40
2018-11-06T13:04:59.409Z,22.80
2018-11-06T13:07:27.705Z,22.80
2018-11-06T13:09:56.241Z,22.30
2018-11-06T13:12:24.438Z,22.20
2018-11-06T13:14:52.698Z,22.30
2018-11-06T13:17:21.100Z,21.40
2018-11-06T13:19:49.327Z,21.70
2018-11-06T13:22:17.717Z,21.20
2018-11-06T13:24:45.967Z,21.60
2018-11-06T13:27:14.286Z,21.20
2018-11-06T13:29:42.696Z,21.60
2018-11-06T13:32:11.003Z,21.40
2018-11-06T13:34:39.875Z,21.10
2018-11-06T13:37:08.272Z,21.60
2018-11-06T13:39:36.521Z,21.70
2018-11-06T13:42:05.337Z,21.40
2018-11-06T13:44:34.006Z,21.20
2018-11-06T13:47:01.869Z,21.30
2018-11-06T13:49:30.288Z,21.60
2018-11-06T13:51:58.759Z,21.20
2018-11-06T13:54:26.998Z,21.20
2018-11-06T13:56:55.248Z,20.80
2018-11-06T13:59:23.636Z,20.60
2018-11-06T14:01:51.877Z,21.30
2018-11-06T14:04:20.176Z,21.20
2018-11-06T14:06:48.448Z,21.40
2018-11-06T14:09:16.794Z,20.30
2018-11-06T14:11:45.063Z,20.10
2018-11-06T14:14:13.572Z,20.90
2018-11-06T14:16:42.438Z,21.00
2018-11-06T14:19:10.873Z,20.80
2018-11-06T14:21:39.246Z,20.50
2018-11-06T14:24:07.639Z,21.00
2018-11-06T14:26:35.934Z,20.90
2018-11-06T14:29:04.246Z,20.20
2018-11-06T14:31:32.590Z,21.00
2018-11-06T14:34:00.991Z,20.00
2018-11-06T14:36:29.312Z,20.90
2018-11-06T14:38:57.572Z,21.00
2018-11-06T14:41:26.197Z,20.40
2018-11-06T14:43:54.541Z,20.20
2018-11-06T14:46:22.864Z,19.90
2018-11-06T14:48:51.245Z,19.80
2018-11-06T14:51:19.484Z,20.20
2018-11-06T14:53:47.891Z,20.10
2018-11-06T14:56:17.914Z,20.40
2018-11-06T14:58:46.159Z,20.00
2018-11-06T15:01:14.653Z,20.10
2018-11-06T15:03:42.961Z,20.20
2018-11-06T15:06:11.248Z,19.80
2018-11-06T15:08:39.702Z,20.30
2018-11-06T15:11:08.126Z,19.60
2018-11-06T15:13:36.648Z,19.10
2018-11-06T15:16:05.284Z,19.70
2018-11-06T15:18:33.560Z,19.00
2018-11-06T15:21:02.060Z,19.40
2018-11-06T15:23:30.297Z,19.50
2018-11-06T15:25:58.528Z,18.80
2018-11-06T15:28:26.864Z,19.50
2018-11-06T15:30:55.360Z,19.20
2018-11-06T15:33:23.695Z,18.80
2018-11-06T15:35:52.027Z,18.60
2018-11-06T15:38:20.455Z,18.50
2018-11-06T15:40:48.837Z,18.50
2018-11-06T15:43:17.228Z,18.40
2018-11-06T15:45:45.630Z,18.20
2018-11-06T15:48:14.002Z,18.30
2018-11-06T15:50:42.328Z,18.40
2018-11-06T15:53:10.699Z,17.90
2018-11-06T15:55:39.001Z,17.80
2018-11-06T15:58:08.133Z,16.90
2018-11-06T16:00:36.752Z,17.20
2018-11-06T16:03:05.084Z,17.60
2018-11-06T16:05:33.318Z,17.20
2018-11-06T16:08:01.790Z,16.70
2018-11-06T16:10:30.148Z,16.80
2018-11-06T16:12:58.452Z,16.70
2018-11-06T16:15:27.171Z,16.20
2018-11-06T16:17:55.463Z,16.60
2018-11-06T16:20:23.750Z,15.70
2018-11-06T16:22:52.268Z,15.50
2018-11-06T16:25:21.370Z,15.80
2018-11-06T16:27:49.825Z,15.60
2018-11-06T16:30:19.364Z,15.80
2018-11-06T16:32:47.891Z,15.40
2018-11-06T16:35:17.727Z,15.50
2018-11-06T16:37:46.511Z,15.80
2018-11-06T16:40:15.280Z,15.40
2018-11-06T16:42:44.377Z,15.40
2018-11-06T16:45:16.385Z,15.40
2018-11-06T16:47:45.780Z,15.50
2018-11-06T16:50:15.247Z,15.30
2018-11-06T16:52:43.778Z,15.00
2018-11-06T16:55:12.460Z,14.20
2018-11-06T16:57:41.846Z,14.60
2018-11-06T17:00:14.014Z,14.90
2018-11-06T17:02:42.737Z,15.10
2018-11-06T17:05:12.324Z,14.60
2018-11-06T17:07:42.230Z,14.10
2018-11-06T17:10:11.988Z,14.70
2018-11-06T17:12:40.645Z,14.30
2018-11-06T17:15:17.073Z,14.60
2018-11-06T17:17:46.251Z,14.50
2018-11-06T17:20:15.090Z,14.90
2018-11-06T17:22:43.399Z,14.20
2018-11-06T17:25:13.868Z,14.60
2018-11-06T17:27:42.191Z,14.10
2018-11-06T17:30:13.104Z,14.40
2018-11-06T17:32:41.865Z,14.20
2018-11-06T17:35:12.915Z,14.40
2018-11-06T17:37:41.649Z,14.10
2018-11-06T17:40:12.282Z,13.50
2018-11-06T17:42:41.178Z,14.20
2018-11-06T17:45:15.263Z,13.90
2018-11-06T17:47:43.751Z,13.50
2018-11-06T17:50:13.565Z,13.90
2018-11-06T17:52:42.257Z,14.00
2018-11-06T17:55:12.243Z,14.10
2018-11-06T17:57:40.897Z,14.30
2018-11-06T18:00:13.237Z,14.30
2018-11-06T18:02:44.217Z,14.60
2018-11-06T18:05:13.640Z,13.80
2018-11-06T18:07:42.529Z,14.30
2018-11-06T18:10:12.743Z,14.70
2018-11-06T18:12:41.081Z,14.50
2018-11-06T18:15:09.614Z,14.40
2018-11-06T18:17:38.738Z,14.70
2018-11-06T18:20:08.415Z,14.70
2018-11-06T18:22:37.110Z,14.50
2018-11-06T18:25:06.217Z,14.30
2018-11-06T18:27:34.538Z,14.40
2018-11-06T18:30:03.040Z,14.30
2018-11-06T18:32:31.345Z,13.90
2018-11-06T18:34:59.697Z,13.80
2018-11-06T18:37:28.129Z,13.40
2018-11-06T18:39:57.043Z,14.30
2018-11-06T18:42:25.335Z,14.30
2018-11-06T18:44:53.836Z,14.10
2018-11-06T18:47:22.138Z,14.20
2018-11-06T18:49:51.690Z,14.10
2018-11-06T18:52:20.173Z,14.20
2018-11-06T18:54:48.518Z,13.70
2018-11-06T18:57:16.879Z,13.60
2018-11-06T18:59:45.315Z,14.10
2018-11-06T19:02:13.731Z,13.90
2018-11-06T19:04:42.696Z,13.60
2018-11-06T19:07:11.119Z,13.40
2018-11-06T19:09:39.423Z,14.20
2018-11-06T19:12:07.773Z,13.70
2018-11-06T19:14:36.242Z,13.60
2018-11-06T19:17:04.945Z,13.50
2018-11-06T19:19:33.484Z,14.10
2018-11-06T19:22:01.831Z,13.90
2018-11-06T19:24:30.258Z,14.00
2018-11-06T19:26:58.602Z,14.00
2018-11-06T19:29:27.546Z,13.70
2018-11-06T19:31:55.920Z,13.60
2018-11-06T19:34:24.354Z,14.00
2018-11-06T19:36:53.270Z,13.80
2018-11-06T19:39:21.723Z,13.60
2018-11-06T19:41:50.125Z,13.60
2018-11-06T19:44:18.494Z,13.60
2018-11-06T19:46:46.839Z,14.00
2018-11-06T19:49:15.378Z,13.70
2018-11-06T19:51:44.028Z,14.00
2018-11-06T19:54:12.307Z,14.00
2018-11-06T19:56:40.716Z,13.80
2018-11-06T19:59:09.131Z,14.00
2018-11-06T20:01:37.560Z,14.00
2018-11-06T20:04:06.181Z,13.70
2018-11-06T20:06:34.899Z,13.90
2018-11-06T20:09:05.170Z,13.20
2018-11-06T20:11:33.576Z,14.20
2018-11-06T20:14:01.988Z,14.10
2018-11-06T20:16:30.376Z,14.00
2018-11-06T20:18:58.805Z,14.00
2018-11-06T20:21:27.273Z,13.80
2018-11-06T20:23:55.663Z,13.30
2018-11-06T20:26:24.044Z,13.80
2018-11-06T20:28:52.440Z,13.50
2018-11-06T20:31:20.712Z,13.90
2018-11-06T20:33:49.124Z,14.40
2018-11-06T20:36:18.029Z,13.50
2018-11-06T20:38:46.503Z,14.50
2018-11-06T20:41:14.773Z,14.20
2018-11-06T20:43:43.271Z,14.40
2018-11-06T20:46:11.645Z,14.20
2018-11-06T20:48:40.018Z,14.10
2018-11-06T20:51:08.539Z,14.20
2018-11-06T20:53:36.970Z,14.20
2018-11-06T20:56:06.125Z,13.90
2018-11-06T20:58:34.699Z,14.00
2018-11-06T21:01:03.281Z,14.20
2018-11-06T21:03:31.753Z,14.10
2018-11-06T21:06:00.807Z,14.20
2018-11-06T21:08:29.094Z,13.40
2018-11-06T21:10:57.927Z,13.80
2018-11-06T21:13:27.478Z,13.20
2018-11-06T21:15:55.750Z,13.80
2018-11-06T21:18:24.007Z,13.60
2018-11-06T21:20:52.409Z,14.10
2018-11-06T21:23:20.998Z,13.60
2018-11-06T21:25:49.978Z,14.10
2018-11-06T21:28:18.209Z,14.00
2018-11-06T21:30:46.597Z,14.10
2018-11-06T21:33:14.881Z,13.80
2018-11-06T21:35:43.278Z,14.00
2018-11-06T21:38:11.663Z,14.00
2018-11-06T21:40:39.885Z,13.90
2018-11-06T21:43:08.283Z,14.00
2018-11-06T21:45:36.618Z,13.70
2018-11-06T21:48:05.105Z,13.60
2018-11-06T21:50:33.711Z,13.30
2018-11-06T21:53:02.062Z,13.40
2018-11-06T21:55:30.315Z,13.50
2018-11-06T21:57:58.653Z,13.20
2018-11-06T22:00:27.019Z,13.70
2018-11-06T22:02:55.257Z,13.50
2018-11-06T22:05:23.822Z,13.30
2018-11-06T22:07:52.050Z,13.60
2018-11-06T22:10:20.977Z,13.30
2018-11-06T22:12:49.824Z,13.40
2018-11-06T22:15:18.874Z,12.90
2018-11-06T22:17:47.166Z,13.20
2018-11-06T22:20:16.987Z,13.40
2018-11-06T22:22:45.761Z,12.80
2018-11-06T22:25:14.119Z,13.40
2018-11-06T22:27:42.620Z,13.30
2018-11-06T22:30:12.454Z,13.30
2018-11-06T22:32:41.654Z,13.50
2018-11-06T22:35:11.643Z,13.40
2018-11-06T22:37:39.980Z,13.40
2018-11-06T22:40:09.462Z,13.70
2018-11-06T22:42:38.020Z,13.10
2018-11-06T22:45:09.008Z,13.30
2018-11-06T22:47:37.347Z,13.00
2018-11-06T22:50:07.867Z,13.30
2018-11-06T22:52:36.253Z,13.10
2018-11-06T22:55:04.665Z,13.20
2018-11-06T22:57:32.912Z,13.20
2018-11-06T23:00:01.275Z,13.50
2018-11-06T23:02:29.661Z,13.20
2018-11-06T23:04:57.890Z,12.40
2018-11-06T23:07:31.902Z,13.10
2018-11-06T23:10:00.370Z,12.90
2018-11-06T23:12:28.625Z,12.50
2018-11-06T23:14:56.888Z,13.30
2018-11-06T23:17:25.231Z,13.30
2018-11-06T23:19:53.456Z,13.00
2018-11-06T23:22:21.673Z,13.00
2018-11-06T23:24:50.122Z,13.00
2018-11-06T23:27:18.342Z,13.10
2018-11-06T23:29:46.681Z,13.30
2018-11-06T23:32:14.957Z,12.60
2018-11-06T23:34:43.193Z,12.90
2018-11-06T23:37:11.615Z,13.40
2018-11-06T23:39:39.887Z,13.40
2018-11-06T23:42:08.088Z,13.50
2018-11-06T23:44:36.498Z,13.20
2018-11-06T23:47:04.926Z,13.40
2018-11-06T23:49:33.290Z,13.20
2018-11-06T23:52:01.639Z,13.00
2018-11-06T23:54:29.979Z,13.20
2018-11-06T23:56:58.399Z,12.80
2018-11-06T23:59:26.772Z,13.00
